sensor_id;sensor_type;location;lat;lon;timestamp;P1;durP1;ratioP1;P2;durP2;ratioP2
10489;SDS011;35569;48.402;10.670;2023-05-15T00:00:05;2.30;;;2.20;;
10489;SDS011;35569;48.402;10.670;2023-05-15T00:00:46;1.97;;;1.97;;
10489;SDS011;35569;48.402;10.670;2023-05-15T00:01:19;1.83;;;1.83;;
10489;SDS011;35569;48.402;10.670;2023-05-15T00:01:55;2.00;;;2.00;;
10489;SDS011;35569;48.402;10.670;2023-05-15T00:02:27;2.20;;;2.10;;
10489;SDS011;35569;48.402;10.670;2023-05-15T00:03:00;1.80;;;1.80;;
10489;SDS011;35569;48.402;10.670;2023-05-15T00:03:35;1.90;;;1.80;;
10489;SDS011;35569;48.402;10.670;2023-05-15T00:04:08;2.00;;;1.90;;
10489;SDS011;35569;48.402;10.670;2023-05-15T00:04:40;1.97;;;1.97;;
10489;SDS011;35569;48.402;10.670;2023-05-15T00:05:15;1.67;;;1.67;;
10489;SDS011;35569;48.402;10.670;2023-05-15T00:05:47;1.87;;;1.87;;
10489;SDS011;35569;48.402;10.670;2023-05-15T00:06:20;1.97;;;1.93;;
10489;SDS011;35569;48.402;10.670;2023-05-15T00:06:55;1.80;;;1.80;;
10489;SDS011;35569;48.402;10.670;2023-05-15T00:07:27;2.00;;;1.90;;
10489;SDS011;35569;48.402;10.670;2023-05-15T00:08:02;2.10;;;2.00;;
10489;SDS011;35569;48.402;10.670;2023-05-15T00:08:38;1.73;;;1.73;;
10489;SDS011;35569;48.402;10.670;2023-05-15T00:09:10;2.00;;;2.00;;
10489;SDS011;35569;48.402;10.670;2023-05-15T00:09:43;2.30;;;2.10;;
10489;SDS011;35569;48.402;10.670;2023-05-15T00:10:18;1.93;;;1.83;;
10489;SDS011;35569;48.402;10.670;2023-05-15T00:10:50;2.20;;;2.17;;
10489;SDS011;35569;48.402;10.670;2023-05-15T00:11:32;2.30;;;2.20;;
10489;SDS011;35569;48.402;10.670;2023-05-15T00:12:07;2.53;;;2.30;;
10489;SDS011;35569;48.402;10.670;2023-05-15T00:12:40;2.47;;;2.30;;
10489;SDS011;35569;48.402;10.670;2023-05-15T00:13:12;2.60;;;2.50;;
10489;SDS011;35569;48.402;10.670;2023-05-15T00:13:45;2.37;;;2.37;;
10489;SDS011;35569;48.402;10.670;2023-05-15T00:14:20;2.30;;;2.30;;
10489;SDS011;35569;48.402;10.670;2023-05-15T00:14:52;2.63;;;2.43;;
10489;SDS011;35569;48.402;10.670;2023-05-15T00:15:24;2.20;;;2.20;;
10489;SDS011;35569;48.402;10.670;2023-05-15T00:15:57;2.50;;;2.40;;
10489;SDS011;35569;48.402;10.670;2023-05-15T00:16:32;2.47;;;2.37;;
10489;SDS011;35569;48.402;10.670;2023-05-15T00:17:05;2.40;;;2.30;;
10489;SDS011;35569;48.402;10.670;2023-05-15T00:17:38;2.20;;;2.20;;
10489;SDS011;35569;48.402;10.670;2023-05-15T00:18:13;2.30;;;2.30;;
10489;SDS011;35569;48.402;10.670;2023-05-15T00:18:46;2.30;;;2.30;;
10489;SDS011;35569;48.402;10.670;2023-05-15T00:19:18;2.60;;;2.33;;
10489;SDS011;35569;48.402;10.670;2023-05-15T00:19:53;4.87;;;4.67;;
10489;SDS011;35569;48.402;10.670;2023-05-15T00:20:28;2.40;;;2.40;;
10489;SDS011;35569;48.402;10.670;2023-05-15T00:21:00;2.80;;;2.70;;
10489;SDS011;35569;48.402;10.670;2023-05-15T00:21:35;2.20;;;2.10;;
10489;SDS011;35569;48.402;10.670;2023-05-15T00:22:08;2.23;;;2.23;;
10489;SDS011;35569;48.402;10.670;2023-05-15T00:22:40;2.60;;;2.40;;
10489;SDS011;35569;48.402;10.670;2023-05-15T00:23:15;2.10;;;2.00;;
10489;SDS011;35569;48.402;10.670;2023-05-15T00:23:50;2.13;;;2.13;;
10489;SDS011;35569;48.402;10.670;2023-05-15T00:24:24;2.07;;;2.07;;
10489;SDS011;35569;48.402;10.670;2023-05-15T00:24:56;2.60;;;2.50;;
10489;SDS011;35569;48.402;10.670;2023-05-15T00:25:32;2.10;;;2.10;;
10489;SDS011;35569;48.402;10.670;2023-05-15T00:26:04;2.20;;;2.10;;
10489;SDS011;35569;48.402;10.670;2023-05-15T00:26:37;5.07;;;2.20;;
10489;SDS011;35569;48.402;10.670;2023-05-15T00:27:11;2.50;;;2.30;;
10489;SDS011;35569;48.402;10.670;2023-05-15T00:27:44;2.30;;;2.20;;
10489;SDS011;35569;48.402;10.670;2023-05-15T00:28:16;2.30;;;2.20;;
10489;SDS011;35569;48.402;10.670;2023-05-15T00:28:49;2.20;;;2.10;;
10489;SDS011;35569;48.402;10.670;2023-05-15T00:29:24;2.30;;;2.17;;
10489;SDS011;35569;48.402;10.670;2023-05-15T00:29:56;1.90;;;1.90;;
10489;SDS011;35569;48.402;10.670;2023-05-15T00:30:28;2.10;;;2.10;;
10489;SDS011;35569;48.402;10.670;2023-05-15T00:31:01;2.50;;;2.40;;
10489;SDS011;35569;48.402;10.670;2023-05-15T00:31:36;2.03;;;2.00;;
10489;SDS011;35569;48.402;10.670;2023-05-15T00:32:09;2.63;;;2.53;;
10489;SDS011;35569;48.402;10.670;2023-05-15T00:32:41;2.57;;;2.47;;
10489;SDS011;35569;48.402;10.670;2023-05-15T00:33:16;2.17;;;2.07;;
10489;SDS011;35569;48.402;10.670;2023-05-15T00:33:48;2.63;;;2.53;;
10489;SDS011;35569;48.402;10.670;2023-05-15T00:34:21;2.47;;;2.27;;
10489;SDS011;35569;48.402;10.670;2023-05-15T00:34:56;2.47;;;2.37;;
10489;SDS011;35569;48.402;10.670;2023-05-15T00:35:28;2.50;;;2.30;;
10489;SDS011;35569;48.402;10.670;2023-05-15T00:36:01;2.30;;;2.20;;
10489;SDS011;35569;48.402;10.670;2023-05-15T00:36:36;2.40;;;2.30;;
10489;SDS011;35569;48.402;10.670;2023-05-15T00:37:08;1.90;;;1.80;;
10489;SDS011;35569;48.402;10.670;2023-05-15T00:37:42;2.57;;;2.47;;
10489;SDS011;35569;48.402;10.670;2023-05-15T00:38:20;2.17;;;2.07;;
10489;SDS011;35569;48.402;10.670;2023-05-15T00:38:52;4.03;;;2.40;;
10489;SDS011;35569;48.402;10.670;2023-05-15T00:39:25;2.23;;;2.13;;
10489;SDS011;35569;48.402;10.670;2023-05-15T00:40:00;2.27;;;2.27;;
10489;SDS011;35569;48.402;10.670;2023-05-15T00:40:32;1.80;;;1.80;;
10489;SDS011;35569;48.402;10.670;2023-05-15T00:41:05;1.93;;;1.93;;
10489;SDS011;35569;48.402;10.670;2023-05-15T00:41:40;2.20;;;2.20;;
10489;SDS011;35569;48.402;10.670;2023-05-15T00:42:12;2.10;;;2.10;;
10489;SDS011;35569;48.402;10.670;2023-05-15T00:42:46;1.77;;;1.77;;
10489;SDS011;35569;48.402;10.670;2023-05-15T00:43:22;2.03;;;2.03;;
10489;SDS011;35569;48.402;10.670;2023-05-15T00:43:54;2.37;;;2.27;;
10489;SDS011;35569;48.402;10.670;2023-05-15T00:44:27;2.00;;;1.90;;
10489;SDS011;35569;48.402;10.670;2023-05-15T00:44:59;1.70;;;1.70;;
10489;SDS011;35569;48.402;10.670;2023-05-15T00:45:35;2.00;;;1.90;;
10489;SDS011;35569;48.402;10.670;2023-05-15T00:46:08;2.40;;;2.30;;
10489;SDS011;35569;48.402;10.670;2023-05-15T00:46:41;2.00;;;2.00;;
10489;SDS011;35569;48.402;10.670;2023-05-15T00:47:17;2.50;;;2.00;;
10489;SDS011;35569;48.402;10.670;2023-05-15T00:47:51;1.80;;;1.80;;
10489;SDS011;35569;48.402;10.670;2023-05-15T00:48:24;2.00;;;2.00;;
10489;SDS011;35569;48.402;10.670;2023-05-15T00:49:00;3.07;;;2.87;;
10489;SDS011;35569;48.402;10.670;2023-05-15T00:49:34;2.60;;;2.50;;
10489;SDS011;35569;48.402;10.670;2023-05-15T00:50:08;2.23;;;2.17;;
10489;SDS011;35569;48.402;10.670;2023-05-15T00:50:44;2.00;;;2.00;;
10489;SDS011;35569;48.402;10.670;2023-05-15T00:51:16;2.03;;;2.03;;
10489;SDS011;35569;48.402;10.670;2023-05-15T00:51:49;2.20;;;2.10;;
10489;SDS011;35569;48.402;10.670;2023-05-15T00:52:24;2.27;;;2.27;;
10489;SDS011;35569;48.402;10.670;2023-05-15T00:52:57;2.63;;;2.40;;
10489;SDS011;35569;48.402;10.670;2023-05-15T00:53:32;2.17;;;2.07;;
10489;SDS011;35569;48.402;10.670;2023-05-15T00:54:09;2.33;;;2.13;;
10489;SDS011;35569;48.402;10.670;2023-05-15T00:54:41;2.27;;;2.17;;
10489;SDS011;35569;48.402;10.670;2023-05-15T00:55:14;2.00;;;1.90;;
10489;SDS011;35569;48.402;10.670;2023-05-15T00:55:49;1.83;;;1.83;;
10489;SDS011;35569;48.402;10.670;2023-05-15T00:56:21;2.13;;;2.00;;
10489;SDS011;35569;48.402;10.670;2023-05-15T00:56:55;1.97;;;1.97;;
10489;SDS011;35569;48.402;10.670;2023-05-15T00:57:31;2.77;;;2.60;;
10489;SDS011;35569;48.402;10.670;2023-05-15T00:58:04;2.30;;;2.20;;
10489;SDS011;35569;48.402;10.670;2023-05-15T00:58:37;2.00;;;1.90;;
10489;SDS011;35569;48.402;10.670;2023-05-15T00:59:12;2.43;;;2.33;;
10489;SDS011;35569;48.402;10.670;2023-05-15T00:59:45;1.90;;;1.90;;
10489;SDS011;35569;48.402;10.670;2023-05-15T01:00:19;1.70;;;1.70;;
10489;SDS011;35569;48.402;10.670;2023-05-15T01:00:54;2.83;;;2.63;;
10489;SDS011;35569;48.402;10.670;2023-05-15T01:01:26;3.37;;;2.63;;
10489;SDS011;35569;48.402;10.670;2023-05-15T01:02:04;2.43;;;2.43;;
10489;SDS011;35569;48.402;10.670;2023-05-15T01:02:39;2.23;;;2.23;;
10489;SDS011;35569;48.402;10.670;2023-05-15T01:03:11;2.03;;;1.93;;
10489;SDS011;35569;48.402;10.670;2023-05-15T01:03:44;2.40;;;2.30;;
10489;SDS011;35569;48.402;10.670;2023-05-15T01:04:20;2.20;;;2.10;;
10489;SDS011;35569;48.402;10.670;2023-05-15T01:04:52;1.93;;;1.83;;
10489;SDS011;35569;48.402;10.670;2023-05-15T01:05:25;2.50;;;2.40;;
10489;SDS011;35569;48.402;10.670;2023-05-15T01:06:00;2.90;;;2.80;;
10489;SDS011;35569;48.402;10.670;2023-05-15T01:06:32;2.63;;;2.53;;
10489;SDS011;35569;48.402;10.670;2023-05-15T01:07:04;2.20;;;2.10;;
10489;SDS011;35569;48.402;10.670;2023-05-15T01:07:42;2.23;;;2.20;;
10489;SDS011;35569;48.402;10.670;2023-05-15T01:08:19;2.33;;;2.23;;
10489;SDS011;35569;48.402;10.670;2023-05-15T01:08:57;2.30;;;2.30;;
10489;SDS011;35569;48.402;10.670;2023-05-15T01:09:34;1.97;;;1.97;;
10489;SDS011;35569;48.402;10.670;2023-05-15T01:10:08;2.30;;;2.30;;
10489;SDS011;35569;48.402;10.670;2023-05-15T01:10:41;2.03;;;2.03;;
10489;SDS011;35569;48.402;10.670;2023-05-15T01:11:16;2.20;;;2.10;;
10489;SDS011;35569;48.402;10.670;2023-05-15T01:11:49;2.67;;;2.57;;
10489;SDS011;35569;48.402;10.670;2023-05-15T01:12:25;2.30;;;2.20;;
10489;SDS011;35569;48.402;10.670;2023-05-15T01:13:00;2.23;;;2.20;;
10489;SDS011;35569;48.402;10.670;2023-05-15T01:13:33;2.50;;;1.77;;
10489;SDS011;35569;48.402;10.670;2023-05-15T01:14:06;2.53;;;2.43;;
10489;SDS011;35569;48.402;10.670;2023-05-15T01:14:42;1.97;;;1.87;;
10489;SDS011;35569;48.402;10.670;2023-05-15T01:15:14;2.20;;;2.13;;
10489;SDS011;35569;48.402;10.670;2023-05-15T01:15:48;2.23;;;2.13;;
10489;SDS011;35569;48.402;10.670;2023-05-15T01:16:21;2.00;;;1.90;;
10489;SDS011;35569;48.402;10.670;2023-05-15T01:16:56;2.07;;;2.07;;
10489;SDS011;35569;48.402;10.670;2023-05-15T01:17:29;2.20;;;2.10;;
10489;SDS011;35569;48.402;10.670;2023-05-15T01:18:04;2.07;;;2.03;;
10489;SDS011;35569;48.402;10.670;2023-05-15T01:18:39;1.97;;;1.97;;
10489;SDS011;35569;48.402;10.670;2023-05-15T01:19:12;2.10;;;2.00;;
10489;SDS011;35569;48.402;10.670;2023-05-15T01:19:44;3.23;;;2.13;;
10489;SDS011;35569;48.402;10.670;2023-05-15T01:20:21;1.93;;;1.93;;
10489;SDS011;35569;48.402;10.670;2023-05-15T01:21:01;2.60;;;2.30;;
10489;SDS011;35569;48.402;10.670;2023-05-15T01:22:51;1.80;;;1.80;;
10489;SDS011;35569;48.402;10.670;2023-05-15T01:23:32;2.00;;;1.90;;
10489;SDS011;35569;48.402;10.670;2023-05-15T01:24:19;2.03;;;1.93;;
10489;SDS011;35569;48.402;10.670;2023-05-15T01:26:14;2.50;;;2.40;;
10489;SDS011;35569;48.402;10.670;2023-05-15T01:27:20;2.10;;;2.00;;
10489;SDS011;35569;48.402;10.670;2023-05-15T01:27:55;1.80;;;1.80;;
10489;SDS011;35569;48.402;10.670;2023-05-15T01:28:29;2.40;;;2.20;;
10489;SDS011;35569;48.402;10.670;2023-05-15T01:29:07;1.67;;;1.67;;
10489;SDS011;35569;48.402;10.670;2023-05-15T01:29:43;2.17;;;2.07;;
10489;SDS011;35569;48.402;10.670;2023-05-15T01:30:23;2.07;;;2.07;;
10489;SDS011;35569;48.402;10.670;2023-05-15T01:31:09;2.43;;;2.33;;
10489;SDS011;35569;48.402;10.670;2023-05-15T01:31:47;1.90;;;1.90;;
10489;SDS011;35569;48.402;10.670;2023-05-15T01:32:23;2.37;;;2.27;;
10489;SDS011;35569;48.402;10.670;2023-05-15T01:33:00;2.30;;;2.20;;
10489;SDS011;35569;48.402;10.670;2023-05-15T01:33:37;2.33;;;2.23;;
10489;SDS011;35569;48.402;10.670;2023-05-15T01:34:12;1.70;;;1.70;;
10489;SDS011;35569;48.402;10.670;2023-05-15T01:34:52;2.30;;;2.20;;
10489;SDS011;35569;48.402;10.670;2023-05-15T01:35:29;2.00;;;1.90;;
10489;SDS011;35569;48.402;10.670;2023-05-15T01:36:06;2.33;;;2.23;;
10489;SDS011;35569;48.402;10.670;2023-05-15T01:36:44;2.53;;;2.40;;
10489;SDS011;35569;48.402;10.670;2023-05-15T01:37:21;2.47;;;2.40;;
10489;SDS011;35569;48.402;10.670;2023-05-15T01:38:07;2.07;;;2.07;;
10489;SDS011;35569;48.402;10.670;2023-05-15T01:38:49;2.07;;;1.97;;
10489;SDS011;35569;48.402;10.670;2023-05-15T01:39:23;1.80;;;1.80;;
10489;SDS011;35569;48.402;10.670;2023-05-15T01:40:02;1.90;;;1.80;;
10489;SDS011;35569;48.402;10.670;2023-05-15T01:40:38;2.40;;;2.30;;
10489;SDS011;35569;48.402;10.670;2023-05-15T01:41:14;2.13;;;2.13;;
10489;SDS011;35569;48.402;10.670;2023-05-15T01:41:57;2.10;;;2.10;;
10489;SDS011;35569;48.402;10.670;2023-05-15T01:42:36;2.80;;;2.70;;
10489;SDS011;35569;48.402;10.670;2023-05-15T01:43:12;2.23;;;2.20;;
10489;SDS011;35569;48.402;10.670;2023-05-15T01:43:51;2.10;;;2.00;;
10489;SDS011;35569;48.402;10.670;2023-05-15T01:44:27;2.10;;;2.10;;
10489;SDS011;35569;48.402;10.670;2023-05-15T01:45:00;2.50;;;2.40;;
10489;SDS011;35569;48.402;10.670;2023-05-15T01:45:38;1.93;;;1.93;;
10489;SDS011;35569;48.402;10.670;2023-05-15T01:46:12;2.40;;;2.40;;
10489;SDS011;35569;48.402;10.670;2023-05-15T01:46:48;2.07;;;1.97;;
10489;SDS011;35569;48.402;10.670;2023-05-15T01:47:25;2.33;;;2.23;;
10489;SDS011;35569;48.402;10.670;2023-05-15T01:48:01;2.00;;;2.00;;
10489;SDS011;35569;48.402;10.670;2023-05-15T01:48:38;2.33;;;2.27;;
10489;SDS011;35569;48.402;10.670;2023-05-15T01:49:15;2.17;;;2.07;;
10489;SDS011;35569;48.402;10.670;2023-05-15T01:49:49;1.93;;;1.93;;
10489;SDS011;35569;48.402;10.670;2023-05-15T01:50:22;2.33;;;2.23;;
10489;SDS011;35569;48.402;10.670;2023-05-15T01:51:00;2.10;;;2.10;;
10489;SDS011;35569;48.402;10.670;2023-05-15T01:51:34;2.43;;;2.33;;
10489;SDS011;35569;48.402;10.670;2023-05-15T01:52:07;2.30;;;2.20;;
10489;SDS011;35569;48.402;10.670;2023-05-15T01:52:46;2.30;;;2.20;;
10489;SDS011;35569;48.402;10.670;2023-05-15T01:53:20;2.00;;;2.00;;
10489;SDS011;35569;48.402;10.670;2023-05-15T01:53:52;2.17;;;2.17;;
10489;SDS011;35569;48.402;10.670;2023-05-15T01:54:29;2.30;;;2.00;;
10489;SDS011;35569;48.402;10.670;2023-05-15T01:55:03;2.73;;;2.53;;
10489;SDS011;35569;48.402;10.670;2023-05-15T01:55:37;2.90;;;2.80;;
10489;SDS011;35569;48.402;10.670;2023-05-15T01:56:13;3.90;;;2.63;;
10489;SDS011;35569;48.402;10.670;2023-05-15T01:56:46;3.43;;;2.57;;
10489;SDS011;35569;48.402;10.670;2023-05-15T01:57:19;2.60;;;2.60;;
10489;SDS011;35569;48.402;10.670;2023-05-15T01:57:57;3.23;;;3.13;;
10489;SDS011;35569;48.402;10.670;2023-05-15T01:58:31;3.47;;;3.37;;
10489;SDS011;35569;48.402;10.670;2023-05-15T01:59:04;3.30;;;3.10;;
10489;SDS011;35569;48.402;10.670;2023-05-15T01:59:39;3.00;;;2.90;;
10489;SDS011;35569;48.402;10.670;2023-05-15T02:00:13;3.20;;;3.10;;
10489;SDS011;35569;48.402;10.670;2023-05-15T02:00:46;3.50;;;3.40;;
10489;SDS011;35569;48.402;10.670;2023-05-15T02:01:21;3.10;;;3.00;;
10489;SDS011;35569;48.402;10.670;2023-05-15T02:01:54;3.40;;;3.30;;
10489;SDS011;35569;48.402;10.670;2023-05-15T02:02:29;2.83;;;2.73;;
10489;SDS011;35569;48.402;10.670;2023-05-15T02:03:04;3.20;;;3.10;;
10489;SDS011;35569;48.402;10.670;2023-05-15T02:03:37;2.97;;;2.87;;
10489;SDS011;35569;48.402;10.670;2023-05-15T02:04:10;3.13;;;3.03;;
10489;SDS011;35569;48.402;10.670;2023-05-15T02:04:45;3.13;;;2.90;;
10489;SDS011;35569;48.402;10.670;2023-05-15T02:05:18;3.37;;;3.27;;
10489;SDS011;35569;48.402;10.670;2023-05-15T02:05:51;3.53;;;3.43;;
10489;SDS011;35569;48.402;10.670;2023-05-15T02:06:27;2.90;;;2.83;;
10489;SDS011;35569;48.402;10.670;2023-05-15T02:07:01;3.60;;;3.40;;
10489;SDS011;35569;48.402;10.670;2023-05-15T02:07:34;3.50;;;3.40;;
10489;SDS011;35569;48.402;10.670;2023-05-15T02:08:06;3.27;;;3.17;;
10489;SDS011;35569;48.402;10.670;2023-05-15T02:08:41;3.40;;;3.30;;
10489;SDS011;35569;48.402;10.670;2023-05-15T02:09:14;3.33;;;3.13;;
10489;SDS011;35569;48.402;10.670;2023-05-15T02:09:47;6.80;;;3.33;;
10489;SDS011;35569;48.402;10.670;2023-05-15T02:10:22;2.97;;;2.87;;
10489;SDS011;35569;48.402;10.670;2023-05-15T02:10:57;3.60;;;3.40;;
10489;SDS011;35569;48.402;10.670;2023-05-15T02:11:31;3.60;;;3.50;;
10489;SDS011;35569;48.402;10.670;2023-05-15T02:12:06;2.40;;;2.30;;
10489;SDS011;35569;48.402;10.670;2023-05-15T02:12:39;3.07;;;2.93;;
10489;SDS011;35569;48.402;10.670;2023-05-15T02:13:15;3.33;;;3.23;;
10489;SDS011;35569;48.402;10.670;2023-05-15T02:13:50;3.37;;;3.27;;
10489;SDS011;35569;48.402;10.670;2023-05-15T02:14:23;3.30;;;3.20;;
10489;SDS011;35569;48.402;10.670;2023-05-15T02:14:55;3.40;;;3.30;;
10489;SDS011;35569;48.402;10.670;2023-05-15T02:15:31;3.67;;;3.57;;
10489;SDS011;35569;48.402;10.670;2023-05-15T02:16:04;3.10;;;3.00;;
10489;SDS011;35569;48.402;10.670;2023-05-15T02:16:37;3.00;;;2.90;;
10489;SDS011;35569;48.402;10.670;2023-05-15T02:17:12;3.17;;;3.07;;
10489;SDS011;35569;48.402;10.670;2023-05-15T02:17:45;3.43;;;3.23;;
10489;SDS011;35569;48.402;10.670;2023-05-15T02:18:18;3.10;;;3.00;;
10489;SDS011;35569;48.402;10.670;2023-05-15T02:18:53;3.50;;;3.40;;
10489;SDS011;35569;48.402;10.670;2023-05-15T02:19:25;3.30;;;3.20;;
10489;SDS011;35569;48.402;10.670;2023-05-15T02:19:58;3.07;;;2.97;;
10489;SDS011;35569;48.402;10.670;2023-05-15T02:20:33;2.80;;;2.70;;
10489;SDS011;35569;48.402;10.670;2023-05-15T02:21:06;3.10;;;3.00;;
10489;SDS011;35569;48.402;10.670;2023-05-15T02:21:39;3.13;;;3.03;;
10489;SDS011;35569;48.402;10.670;2023-05-15T02:22:16;3.40;;;3.30;;
10489;SDS011;35569;48.402;10.670;2023-05-15T02:22:48;3.67;;;3.57;;
10489;SDS011;35569;48.402;10.670;2023-05-15T02:23:21;3.30;;;3.20;;
10489;SDS011;35569;48.402;10.670;2023-05-15T02:23:56;3.07;;;2.97;;
10489;SDS011;35569;48.402;10.670;2023-05-15T02:24:28;3.40;;;3.30;;
10489;SDS011;35569;48.402;10.670;2023-05-15T02:25:00;2.80;;;2.60;;
10489;SDS011;35569;48.402;10.670;2023-05-15T02:25:37;3.07;;;2.97;;
10489;SDS011;35569;48.402;10.670;2023-05-15T02:26:19;2.87;;;2.77;;
10489;SDS011;35569;48.402;10.670;2023-05-15T02:26:59;3.20;;;3.10;;
10489;SDS011;35569;48.402;10.670;2023-05-15T02:27:41;2.90;;;2.80;;
10489;SDS011;35569;48.402;10.670;2023-05-15T02:28:23;3.10;;;2.90;;
10489;SDS011;35569;48.402;10.670;2023-05-15T02:29:07;2.77;;;2.67;;
10489;SDS011;35569;48.402;10.670;2023-05-15T02:29:48;3.30;;;3.20;;
10489;SDS011;35569;48.402;10.670;2023-05-15T02:30:27;2.83;;;2.70;;
10489;SDS011;35569;48.402;10.670;2023-05-15T02:31:10;2.90;;;2.87;;
10489;SDS011;35569;48.402;10.670;2023-05-15T02:31:50;3.10;;;2.97;;
10489;SDS011;35569;48.402;10.670;2023-05-15T02:32:27;3.07;;;2.97;;
10489;SDS011;35569;48.402;10.670;2023-05-15T02:33:06;2.90;;;2.80;;
10489;SDS011;35569;48.402;10.670;2023-05-15T02:33:48;2.77;;;2.67;;
10489;SDS011;35569;48.402;10.670;2023-05-15T02:34:25;2.80;;;2.70;;
10489;SDS011;35569;48.402;10.670;2023-05-15T02:35:06;3.23;;;3.13;;
10489;SDS011;35569;48.402;10.670;2023-05-15T02:35:47;2.73;;;2.63;;
10489;SDS011;35569;48.402;10.670;2023-05-15T02:36:21;3.30;;;3.20;;
10489;SDS011;35569;48.402;10.670;2023-05-15T02:36:58;3.10;;;2.90;;
10489;SDS011;35569;48.402;10.670;2023-05-15T02:37:32;2.90;;;2.80;;
10489;SDS011;35569;48.402;10.670;2023-05-15T02:38:07;3.00;;;2.90;;
10489;SDS011;35569;48.402;10.670;2023-05-15T02:38:45;3.10;;;2.90;;
10489;SDS011;35569;48.402;10.670;2023-05-15T02:39:19;2.90;;;2.80;;
10489;SDS011;35569;48.402;10.670;2023-05-15T02:39:55;3.10;;;2.90;;
10489;SDS011;35569;48.402;10.670;2023-05-15T02:40:30;2.80;;;2.70;;
10489;SDS011;35569;48.402;10.670;2023-05-15T02:41:03;3.70;;;3.40;;
10489;SDS011;35569;48.402;10.670;2023-05-15T02:41:39;2.90;;;2.80;;
10489;SDS011;35569;48.402;10.670;2023-05-15T02:42:11;3.20;;;3.10;;
10489;SDS011;35569;48.402;10.670;2023-05-15T02:42:45;3.90;;;3.77;;
10489;SDS011;35569;48.402;10.670;2023-05-15T02:43:23;2.90;;;2.90;;
10489;SDS011;35569;48.402;10.670;2023-05-15T02:43:56;2.83;;;2.83;;
10489;SDS011;35569;48.402;10.670;2023-05-15T02:44:30;2.70;;;2.60;;
10489;SDS011;35569;48.402;10.670;2023-05-15T02:45:07;4.93;;;3.10;;
10489;SDS011;35569;48.402;10.670;2023-05-15T02:45:41;2.90;;;2.80;;
10489;SDS011;35569;48.402;10.670;2023-05-15T02:46:13;3.43;;;3.30;;
10489;SDS011;35569;48.402;10.670;2023-05-15T02:46:49;3.00;;;2.90;;
10489;SDS011;35569;48.402;10.670;2023-05-15T02:47:21;3.40;;;3.27;;
10489;SDS011;35569;48.402;10.670;2023-05-15T02:47:54;3.20;;;3.10;;
10489;SDS011;35569;48.402;10.670;2023-05-15T02:48:29;3.40;;;3.20;;
10489;SDS011;35569;48.402;10.670;2023-05-15T02:49:02;2.97;;;2.87;;
10489;SDS011;35569;48.402;10.670;2023-05-15T02:49:35;3.10;;;3.00;;
10489;SDS011;35569;48.402;10.670;2023-05-15T02:50:10;2.80;;;2.70;;
10489;SDS011;35569;48.402;10.670;2023-05-15T02:50:42;3.27;;;3.17;;
10489;SDS011;35569;48.402;10.670;2023-05-15T02:51:15;3.30;;;3.20;;
10489;SDS011;35569;48.402;10.670;2023-05-15T02:51:50;3.27;;;3.17;;
10489;SDS011;35569;48.402;10.670;2023-05-15T02:52:22;3.77;;;3.67;;
10489;SDS011;35569;48.402;10.670;2023-05-15T02:53:00;3.30;;;3.10;;
10489;SDS011;35569;48.402;10.670;2023-05-15T02:53:37;3.20;;;3.10;;
10489;SDS011;35569;48.402;10.670;2023-05-15T02:54:10;3.80;;;3.63;;
10489;SDS011;35569;48.402;10.670;2023-05-15T02:54:42;3.80;;;3.60;;
10489;SDS011;35569;48.402;10.670;2023-05-15T02:55:17;3.67;;;3.57;;
10489;SDS011;35569;48.402;10.670;2023-05-15T02:55:50;3.20;;;3.10;;
10489;SDS011;35569;48.402;10.670;2023-05-15T02:56:22;3.13;;;3.03;;
10489;SDS011;35569;48.402;10.670;2023-05-15T02:56:57;3.03;;;2.93;;
10489;SDS011;35569;48.402;10.670;2023-05-15T02:57:29;3.20;;;3.10;;
10489;SDS011;35569;48.402;10.670;2023-05-15T02:58:02;2.77;;;2.67;;
10489;SDS011;35569;48.402;10.670;2023-05-15T02:58:40;3.30;;;3.20;;
10489;SDS011;35569;48.402;10.670;2023-05-15T02:59:12;3.87;;;3.77;;
10489;SDS011;35569;48.402;10.670;2023-05-15T02:59:51;3.50;;;3.40;;
10489;SDS011;35569;48.402;10.670;2023-05-15T03:00:26;3.47;;;3.27;;
10489;SDS011;35569;48.402;10.670;2023-05-15T03:00:59;3.20;;;3.10;;
10489;SDS011;35569;48.402;10.670;2023-05-15T03:01:31;3.30;;;3.10;;
10489;SDS011;35569;48.402;10.670;2023-05-15T03:02:06;2.83;;;2.83;;
10489;SDS011;35569;48.402;10.670;2023-05-15T03:02:38;3.43;;;3.33;;
10489;SDS011;35569;48.402;10.670;2023-05-15T03:03:11;3.27;;;3.07;;
10489;SDS011;35569;48.402;10.670;2023-05-15T03:03:46;3.20;;;3.10;;
10489;SDS011;35569;48.402;10.670;2023-05-15T03:04:19;3.33;;;3.23;;
10489;SDS011;35569;48.402;10.670;2023-05-15T03:04:54;2.83;;;2.73;;
10489;SDS011;35569;48.402;10.670;2023-05-15T03:05:26;3.60;;;3.40;;
10489;SDS011;35569;48.402;10.670;2023-05-15T03:05:59;3.60;;;3.50;;
10489;SDS011;35569;48.402;10.670;2023-05-15T03:06:34;3.30;;;3.20;;
10489;SDS011;35569;48.402;10.670;2023-05-15T03:07:06;3.30;;;3.10;;
10489;SDS011;35569;48.402;10.670;2023-05-15T03:07:39;3.23;;;3.13;;
10489;SDS011;35569;48.402;10.670;2023-05-15T03:08:14;3.87;;;3.70;;
10489;SDS011;35569;48.402;10.670;2023-05-15T03:08:47;3.20;;;3.10;;
10489;SDS011;35569;48.402;10.670;2023-05-15T03:09:19;3.63;;;3.53;;
10489;SDS011;35569;48.402;10.670;2023-05-15T03:09:56;3.10;;;3.00;;
10489;SDS011;35569;48.402;10.670;2023-05-15T03:10:28;3.80;;;3.60;;
10489;SDS011;35569;48.402;10.670;2023-05-15T03:11:03;2.90;;;2.80;;
10489;SDS011;35569;48.402;10.670;2023-05-15T03:11:36;3.53;;;3.33;;
10489;SDS011;35569;48.402;10.670;2023-05-15T03:12:08;3.50;;;3.40;;
10489;SDS011;35569;48.402;10.670;2023-05-15T03:12:43;3.20;;;3.10;;
10489;SDS011;35569;48.402;10.670;2023-05-15T03:13:16;3.97;;;3.87;;
10489;SDS011;35569;48.402;10.670;2023-05-15T03:13:51;3.60;;;3.50;;
10489;SDS011;35569;48.402;10.670;2023-05-15T03:14:26;3.10;;;3.00;;
10489;SDS011;35569;48.402;10.670;2023-05-15T03:14:58;3.83;;;3.73;;
10489;SDS011;35569;48.402;10.670;2023-05-15T03:15:30;3.53;;;3.43;;
10489;SDS011;35569;48.402;10.670;2023-05-15T03:16:05;3.40;;;3.30;;
10489;SDS011;35569;48.402;10.670;2023-05-15T03:16:38;3.63;;;3.53;;
10489;SDS011;35569;48.402;10.670;2023-05-15T03:17:10;3.43;;;3.30;;
10489;SDS011;35569;48.402;10.670;2023-05-15T03:17:45;3.57;;;3.27;;
10489;SDS011;35569;48.402;10.670;2023-05-15T03:18:18;3.50;;;3.40;;
10489;SDS011;35569;48.402;10.670;2023-05-15T03:18:50;3.20;;;3.10;;
10489;SDS011;35569;48.402;10.670;2023-05-15T03:19:25;3.80;;;3.60;;
10489;SDS011;35569;48.402;10.670;2023-05-15T03:19:58;3.50;;;3.40;;
10489;SDS011;35569;48.402;10.670;2023-05-15T03:20:30;3.60;;;3.40;;
10489;SDS011;35569;48.402;10.670;2023-05-15T03:21:05;3.67;;;3.57;;
10489;SDS011;35569;48.402;10.670;2023-05-15T03:21:37;3.30;;;3.20;;
10489;SDS011;35569;48.402;10.670;2023-05-15T03:22:10;3.00;;;2.90;;
10489;SDS011;35569;48.402;10.670;2023-05-15T03:22:45;3.17;;;3.07;;
10489;SDS011;35569;48.402;10.670;2023-05-15T03:23:17;3.10;;;3.00;;
10489;SDS011;35569;48.402;10.670;2023-05-15T03:23:49;2.97;;;2.87;;
10489;SDS011;35569;48.402;10.670;2023-05-15T03:24:24;3.30;;;3.20;;
10489;SDS011;35569;48.402;10.670;2023-05-15T03:24:57;3.27;;;3.17;;
10489;SDS011;35569;48.402;10.670;2023-05-15T03:25:29;2.77;;;2.67;;
10489;SDS011;35569;48.402;10.670;2023-05-15T03:26:04;3.00;;;2.90;;
10489;SDS011;35569;48.402;10.670;2023-05-15T03:26:37;3.63;;;3.53;;
10489;SDS011;35569;48.402;10.670;2023-05-15T03:27:11;3.10;;;3.00;;
10489;SDS011;35569;48.402;10.670;2023-05-15T03:27:46;3.50;;;3.40;;
10489;SDS011;35569;48.402;10.670;2023-05-15T03:28:18;2.87;;;2.87;;